createdAt,value
2019-01-11T00:01:15.861Z,99496.27
2019-01-11T00:03:52.986Z,99498.37
2019-01-11T00:06:34.346Z,99493.98
2019-01-11T00:09:05.885Z,99493.93
2019-01-11T00:11:49.542Z,99492.87
2019-01-11T00:14:24.766Z,99495.88
2019-01-11T00:17:02.781Z,99501.91
2019-01-11T00:19:37.513Z,99500.91
2019-01-11T00:22:11.739Z,99498.01
2019-01-11T00:24:51.846Z,99494.19
2019-01-11T00:27:28.519Z,99493.95
2019-01-11T00:30:03.663Z,99495.56
2019-01-11T00:35:37.471Z,99488.27
2019-01-11T00:38:25.473Z,99482.28
2019-01-11T00:41:07.870Z,99486.06
2019-01-11T00:49:32.495Z,99497.83
2019-01-11T00:52:06.854Z,99505.25
2019-01-11T00:54:52.189Z,99500.50
2019-01-11T00:57:27.019Z,99504.14
2019-01-11T01:00:02.540Z,99503.94
2019-01-11T01:02:42.000Z,99509.55
2019-01-11T01:05:16.179Z,99504.63
2019-01-11T01:07:56.968Z,99509.77
2019-01-11T01:10:29.456Z,99510.03
2019-01-11T01:13:06.029Z,99506.60
2019-01-11T01:15:42.072Z,99498.84
2019-01-11T01:18:18.832Z,99500.00
2019-01-11T01:20:55.934Z,99503.73
2019-01-11T01:23:34.475Z,99508.64
2019-01-11T01:26:10.711Z,99512.63
2019-01-11T01:31:48.039Z,99510.14
2019-01-11T01:37:27.167Z,99515.91
2019-01-11T01:40:06.708Z,99517.74
2019-01-11T01:42:47.139Z,99506.56
2019-01-11T01:45:21.215Z,99510.97
2019-01-11T01:47:58.161Z,99513.25
2019-01-11T01:50:36.342Z,99516.21
2019-01-11T01:53:07.138Z,99513.91
2019-01-11T01:55:42.455Z,99511.87
2019-01-11T01:58:15.149Z,99510.19
2019-01-11T02:00:48.940Z,99500.63
2019-01-11T02:03:30.735Z,99498.92
2019-01-11T02:06:03.381Z,99508.52
2019-01-11T02:08:37.414Z,99496.98
2019-01-11T02:11:21.045Z,99502.22
2019-01-11T02:13:57.799Z,99497.63
2019-01-11T02:16:31.940Z,99497.88
2019-01-11T02:19:06.902Z,99493.60
2019-01-11T02:21:40.877Z,99485.48
2019-01-11T02:24:15.915Z,99485.48
2019-01-11T02:26:50.746Z,99486.49
2019-01-11T02:29:20.616Z,99483.24
2019-01-11T02:31:59.719Z,99489.88
2019-01-11T02:34:35.453Z,99491.19
2019-01-11T02:37:06.730Z,99489.16
2019-01-11T02:39:36.981Z,99488.81
2019-01-11T02:42:12.981Z,99479.96
2019-01-11T02:44:47.813Z,99480.13
2019-01-11T02:47:20.394Z,99476.21
2019-01-11T02:49:55.028Z,99476.01
2019-01-11T02:52:31.910Z,99476.88
2019-01-11T02:55:06.514Z,99479.03
2019-01-11T02:57:37.872Z,99471.30
2019-01-11T03:00:29.746Z,99475.33
2019-01-11T03:02:52.913Z,99480.39
2019-01-11T03:05:27.949Z,99487.16
2019-01-11T03:07:59.047Z,99483.89
2019-01-11T03:10:36.324Z,99484.88
2019-01-11T03:13:13.182Z,99479.29
2019-01-11T03:15:43.119Z,99476.63
2019-01-11T03:18:20.700Z,99482.75
2019-01-11T03:20:56.138Z,99473.89
2019-01-11T03:23:32.326Z,99477.36
2019-01-11T03:26:04.986Z,99474.22
2019-01-11T03:28:34.861Z,99472.61
2019-01-11T03:31:12.614Z,99475.99
2019-01-11T03:33:49.001Z,99477.89
2019-01-11T03:36:19.079Z,99479.33
2019-01-11T03:38:54.659Z,99472.73
2019-01-11T03:41:30.695Z,99472.88
2019-01-11T03:44:11.153Z,99472.42
2019-01-11T03:46:42.603Z,99466.23
2019-01-11T03:49:16.940Z,99467.14
2019-01-11T03:52:01.549Z,99461.48
2019-01-11T03:54:34.482Z,99454.61
2019-01-11T03:57:20.079Z,99449.55
2019-01-11T03:59:59.223Z,99446.45
2019-01-11T04:02:42.428Z,99447.10
2019-01-11T04:05:16.637Z,99453.79
2019-01-11T04:07:49.592Z,99458.44
2019-01-11T04:10:24.527Z,99459.25
2019-01-11T04:12:59.389Z,99461.33
2019-01-11T04:15:32.750Z,99462.42
2019-01-11T04:18:09.663Z,99463.68
2019-01-11T04:20:40.971Z,99460.23
2019-01-11T04:23:11.091Z,99460.11
2019-01-11T04:25:54.840Z,99454.16
2019-01-11T04:28:34.703Z,99451.38
2019-01-11T04:31:09.703Z,99448.37
2019-01-11T04:33:46.924Z,99447.95
2019-01-11T04:36:19.603Z,99447.28
2019-01-11T04:38:51.032Z,99449.05
2019-01-11T04:41:26.183Z,99455.42
2019-01-11T04:43:59.471Z,99459.87
2019-01-11T04:46:29.084Z,99461.23
2019-01-11T04:49:03.261Z,99463.20
2019-01-11T04:51:36.917Z,99460.14
2019-01-11T04:54:09.485Z,99457.38
2019-01-11T04:56:44.837Z,99454.91
2019-01-11T04:59:17.597Z,99456.97
2019-01-11T05:01:53.168Z,99453.73
2019-01-11T05:04:35.547Z,99453.12
2019-01-11T05:07:11.811Z,99449.19
2019-01-11T05:09:52.250Z,99446.34
2019-01-11T05:12:25.836Z,99446.66
2019-01-11T05:14:57.976Z,99445.31
2019-01-11T05:17:30.733Z,99445.84
2019-01-11T05:20:16.680Z,99445.03
2019-01-11T05:22:54.287Z,99448.07
2019-01-11T05:25:27.764Z,99446.78
2019-01-11T05:28:11.583Z,99443.72
2019-01-11T05:30:54.738Z,99449.86
2019-01-11T05:33:28.567Z,99446.94
2019-01-11T05:36:00.962Z,99441.36
2019-01-11T05:38:33.725Z,99446.91
2019-01-11T05:41:19.417Z,99444.17
2019-01-11T05:44:06.326Z,99452.56
2019-01-11T05:46:36.106Z,99451.37
2019-01-11T05:49:06.776Z,99457.53
2019-01-11T05:51:39.341Z,99453.66
2019-01-11T05:54:16.218Z,99447.42
2019-01-11T05:56:58.554Z,99451.13
2019-01-11T05:59:32.311Z,99453.63
2019-01-11T06:02:08.493Z,99451.73
2019-01-11T06:04:50.796Z,99454.16
2019-01-11T06:07:29.489Z,99453.42
2019-01-11T06:10:08.053Z,99447.38
2019-01-11T06:12:45.388Z,99454.06
2019-01-11T06:15:23.093Z,99460.20
2019-01-11T06:18:06.323Z,99452.65
2019-01-11T06:20:48.863Z,99455.59
2019-01-11T06:26:19.276Z,99454.52
2019-01-11T06:29:03.136Z,99453.63
2019-01-11T06:31:37.335Z,99457.00
2019-01-11T06:34:12.160Z,99458.20
2019-01-11T06:36:47.514Z,99455.83
2019-01-11T06:39:22.261Z,99456.56
2019-01-11T06:42:01.226Z,99457.09
2019-01-11T06:44:39.916Z,99460.40
2019-01-11T06:47:17.157Z,99456.77
2019-01-11T06:49:51.078Z,99459.08
2019-01-11T06:52:30.152Z,99455.70
2019-01-11T06:58:00.794Z,99454.47
2019-01-11T07:00:32.770Z,99450.13
2019-01-11T07:03:18.877Z,99445.80
2019-01-11T07:05:59.282Z,99445.83
2019-01-11T07:08:34.340Z,99448.56
2019-01-11T07:11:09.556Z,99445.86
2019-01-11T07:13:47.298Z,99442.64
2019-01-11T07:16:22.979Z,99440.09
2019-01-11T07:18:58.218Z,99442.76
2019-01-11T07:21:33.014Z,99428.98
2019-01-11T07:24:04.756Z,99428.66
2019-01-11T07:26:40.578Z,99431.92
2019-01-11T07:29:11.835Z,99432.81
2019-01-11T07:31:56.291Z,99434.34
2019-01-11T07:34:38.752Z,99429.09
2019-01-11T07:37:21.963Z,99434.28
2019-01-11T07:40:04.149Z,99436.09
2019-01-11T07:42:50.679Z,99438.89
2019-01-11T07:51:39.479Z,99436.95
2019-01-11T08:00:00.525Z,99434.50
2019-01-11T08:02:32.302Z,99436.81
2019-01-11T08:05:11.491Z,99442.14
2019-01-11T08:10:31.331Z,99446.71
2019-01-11T08:13:17.347Z,99441.70
2019-01-11T08:15:48.778Z,99441.66
2019-01-11T08:18:23.083Z,99442.45
2019-01-11T08:21:00.995Z,99439.02
2019-01-11T08:23:32.298Z,99438.91
2019-01-11T08:26:09.610Z,99439.66
2019-01-11T08:28:40.922Z,99438.67
2019-01-11T08:31:16.466Z,99442.59
2019-01-11T08:33:51.646Z,99444.81
2019-01-11T08:36:31.067Z,99444.92
2019-01-11T08:39:06.838Z,99444.27
2019-01-11T08:41:45.561Z,99444.23
2019-01-11T08:44:22.881Z,99442.66
2019-01-11T08:49:54.515Z,99439.81
2019-01-11T08:52:28.829Z,99432.05
2019-01-11T08:55:02.640Z,99432.09
2019-01-11T09:00:33.372Z,99420.47
2019-01-11T09:03:11.911Z,99416.59
2019-01-11T09:05:48.250Z,99421.25
2019-01-11T09:08:19.227Z,99425.00
2019-01-11T09:10:56.399Z,99413.72
2019-01-11T09:13:32.162Z,99422.38
2019-01-11T09:16:11.262Z,99421.76
2019-01-11T09:18:44.586Z,99421.87
2019-01-11T09:21:27.353Z,99419.42
2019-01-11T09:24:12.565Z,99420.75
2019-01-11T09:26:48.755Z,99428.03
2019-01-11T09:29:28.778Z,99424.79
2019-01-11T09:32:05.681Z,99426.32
2019-01-11T09:54:14.915Z,99433.39
2019-01-11T10:00:01.268Z,99430.92
2019-01-11T10:09:22.655Z,99427.55
2019-01-11T10:12:04.717Z,99423.41
2019-01-11T10:17:38.969Z,99423.48
2019-01-11T10:20:16.555Z,99425.45
2019-01-11T10:22:46.987Z,99427.04
2019-01-11T10:25:29.125Z,99424.12
2019-01-11T10:28:01.027Z,99423.84
2019-01-11T10:30:53.711Z,99421.76
2019-01-11T10:36:37.131Z,99417.26
2019-01-11T10:39:21.851Z,99411.44
2019-01-11T10:41:57.036Z,99412.60
2019-01-11T10:44:26.975Z,99402.81
2019-01-11T10:47:14.594Z,99401.00
2019-01-11T10:50:06.203Z,99405.65
2019-01-11T10:52:43.429Z,99402.55
2019-01-11T10:55:28.355Z,99406.56
2019-01-11T10:58:05.542Z,99408.81
2019-01-11T11:01:02.628Z,99401.47
2019-01-11T11:03:41.117Z,99404.01
2019-01-11T11:06:16.401Z,99393.52
2019-01-11T11:08:56.167Z,99386.59
2019-01-11T11:11:45.192Z,99389.54
2019-01-11T11:14:23.695Z,99384.76
2019-01-11T11:17:05.234Z,99387.42
2019-01-11T11:19:36.079Z,99385.70
2019-01-11T11:22:20.159Z,99384.42
2019-01-11T11:27:49.698Z,99375.87
2019-01-11T11:30:33.304Z,99376.33
2019-01-11T11:36:19.418Z,99364.72
2019-01-11T11:42:29.233Z,99361.20
2019-01-11T11:45:03.199Z,99357.55
2019-01-11T11:47:36.210Z,99354.08
2019-01-11T11:53:11.039Z,99342.45
2019-01-11T11:56:12.487Z,99343.36
2019-01-11T11:58:25.702Z,99342.89
2019-01-11T12:00:57.705Z,99336.36
2019-01-11T12:03:32.093Z,99334.22
2019-01-11T12:06:06.847Z,99330.63
2019-01-11T12:08:43.283Z,99335.23
2019-01-11T12:11:17.667Z,99329.87
2019-01-11T12:13:53.170Z,99329.92
2019-01-11T12:16:30.182Z,99329.55
2019-01-11T12:19:03.022Z,99320.56
2019-01-11T12:21:41.059Z,99314.72
2019-01-11T12:24:15.668Z,99310.77
2019-01-11T12:26:46.762Z,99310.88
2019-01-11T12:29:25.806Z,99305.63
2019-01-11T12:31:57.816Z,99307.08
2019-01-11T12:34:33.100Z,99314.52
2019-01-11T12:37:08.209Z,99310.92
2019-01-11T12:39:46.724Z,99317.72
2019-01-11T12:42:17.942Z,99317.83
2019-01-11T12:44:51.619Z,99318.18
2019-01-11T12:47:37.114Z,99313.59
2019-01-11T12:50:22.281Z,99314.34
2019-01-11T12:56:00.686Z,99319.28
2019-01-11T12:58:42.720Z,99315.25
2019-01-11T13:01:24.203Z,99307.60
2019-01-11T13:04:08.744Z,99306.28
2019-01-11T13:06:54.569Z,99304.50
2019-01-11T13:09:30.410Z,99306.64
2019-01-11T13:15:07.548Z,99307.39
2019-01-11T13:17:43.766Z,99298.50
2019-01-11T13:20:27.201Z,99302.89
2019-01-11T13:23:04.224Z,99296.80
2019-01-11T13:25:40.631Z,99287.33
2019-01-11T13:28:12.519Z,99285.02
2019-01-11T13:30:56.743Z,99289.30
2019-01-11T13:33:29.437Z,99288.56
2019-01-11T13:36:26.914Z,99284.16
2019-01-11T13:39:01.305Z,99287.85
2019-01-11T13:41:40.434Z,99284.80
2019-01-11T13:44:21.845Z,99280.52
2019-01-11T13:50:13.091Z,99277.53
2019-01-11T13:52:58.875Z,99282.49
2019-01-11T13:55:40.126Z,99289.14
2019-01-11T14:01:10.910Z,99299.75
2019-01-11T14:03:47.971Z,99291.98
2019-01-11T14:06:25.810Z,99290.05
2019-01-11T14:08:58.172Z,99285.60
2019-01-11T14:11:46.117Z,99287.58
2019-01-11T14:14:24.295Z,99286.81
2019-01-11T14:16:55.394Z,99295.97
2019-01-11T14:19:26.827Z,99296.08
2019-01-11T14:22:00.102Z,99296.37
2019-01-11T14:24:36.750Z,99295.88
2019-01-11T14:27:06.684Z,99304.52
2019-01-11T14:29:37.786Z,99307.34
2019-01-11T14:32:15.519Z,99307.92
2019-01-11T14:34:48.098Z,99315.42
2019-01-11T14:37:25.190Z,99309.10
2019-01-11T14:39:57.973Z,99308.72
2019-01-11T14:42:35.770Z,99304.86
2019-01-11T14:45:12.740Z,99309.70
2019-01-11T14:47:43.984Z,99314.78
2019-01-11T14:50:21.391Z,99318.80
2019-01-11T14:52:54.685Z,99323.66
2019-01-11T14:55:25.801Z,99321.64
2019-01-11T14:58:08.962Z,99325.54
2019-01-11T15:00:42.936Z,99327.41
2019-01-11T15:03:27.836Z,99326.39
2019-01-11T15:06:03.452Z,99331.39
2019-01-11T15:08:37.191Z,99328.81
2019-01-11T15:11:09.504Z,99335.77
2019-01-11T15:13:40.875Z,99334.80
2019-01-11T15:16:11.201Z,99346.05
2019-01-11T15:18:41.115Z,99340.84
2019-01-11T15:21:20.489Z,99338.66
2019-01-11T15:23:57.554Z,99339.41
2019-01-11T15:26:36.166Z,99334.09
2019-01-11T15:29:16.030Z,99341.44
2019-01-11T15:31:49.650Z,99336.03
2019-01-11T15:34:28.236Z,99328.64
2019-01-11T15:37:10.771Z,99325.92
2019-01-11T15:39:46.812Z,99324.63
2019-01-11T15:42:22.263Z,99323.94
2019-01-11T15:45:10.693Z,99330.41
2019-01-11T15:47:47.467Z,99323.41
2019-01-11T15:50:23.839Z,99323.13
2019-01-11T15:52:58.888Z,99320.19
2019-01-11T15:55:51.942Z,99322.16
2019-01-11T15:58:33.026Z,99319.70
2019-01-11T16:01:08.045Z,99320.67
2019-01-11T16:03:47.983Z,99315.21
2019-01-11T16:06:33.187Z,99311.84
2019-01-11T16:09:14.472Z,99309.06
2019-01-11T16:11:50.115Z,99313.70
2019-01-11T16:17:40.416Z,99309.63
2019-01-11T16:20:33.817Z,99307.87
2019-01-11T16:23:12.401Z,99299.68
2019-01-11T16:25:50.060Z,99310.83
2019-01-11T16:31:22.503Z,99308.78
2019-01-11T16:34:00.083Z,99311.03
2019-01-11T16:36:37.030Z,99310.34
2019-01-11T16:39:19.828Z,99313.81
2019-01-11T16:42:10.121Z,99311.36
2019-01-11T16:44:45.254Z,99314.94
2019-01-11T16:47:18.263Z,99318.69
2019-01-11T16:49:59.951Z,99314.31
2019-01-11T16:52:33.047Z,99320.66
2019-01-11T16:55:08.069Z,99318.69
2019-01-11T16:57:52.227Z,99315.09
2019-01-11T17:00:20.192Z,99315.42
2019-01-11T17:03:07.152Z,99317.56
2019-01-11T17:05:38.791Z,99312.86
2019-01-11T17:08:12.583Z,99322.18
2019-01-11T17:10:48.845Z,99323.03
2019-01-11T17:13:21.322Z,99320.68
2019-01-11T17:15:56.154Z,99324.69
2019-01-11T17:18:29.560Z,99326.56
2019-01-11T17:21:00.878Z,99326.67
2019-01-11T17:23:36.316Z,99332.02
2019-01-11T17:26:06.047Z,99319.88
2019-01-11T17:28:38.610Z,99335.50
2019-01-11T17:31:09.845Z,99333.89
2019-01-11T17:33:41.200Z,99327.42
2019-01-11T17:36:13.887Z,99322.23
2019-01-11T17:38:49.840Z,99333.00
2019-01-11T17:41:24.282Z,99333.58
2019-01-11T17:43:58.161Z,99328.92
2019-01-11T17:46:29.296Z,99336.41
2019-01-11T17:49:07.154Z,99332.94
2019-01-11T17:51:40.826Z,99333.36
2019-01-11T17:54:24.860Z,99330.99
2019-01-11T17:57:03.725Z,99338.96
2019-01-11T17:59:45.559Z,99339.45
2019-01-11T18:02:24.294Z,99340.11
2019-01-11T18:05:12.440Z,99339.63
2019-01-11T18:07:59.656Z,99343.26
2019-01-11T18:10:38.813Z,99344.71
2019-01-11T18:13:09.519Z,99346.37
2019-01-11T18:15:53.152Z,99336.56
2019-01-11T18:18:25.302Z,99339.14
2019-01-11T18:21:19.672Z,99340.86
2019-01-11T18:23:57.502Z,99335.60
2019-01-11T18:26:28.957Z,99336.52
2019-01-11T18:29:09.734Z,99342.67
2019-01-11T18:31:50.607Z,99339.56
2019-01-11T18:34:26.771Z,99335.56
2019-01-11T18:37:10.898Z,99336.05
2019-01-11T18:39:50.551Z,99335.97
2019-01-11T18:42:23.414Z,99331.38
2019-01-11T18:44:58.870Z,99337.28
2019-01-11T18:47:35.970Z,99330.73
2019-01-11T18:50:10.287Z,99327.73
2019-01-11T18:53:05.285Z,99323.50
2019-01-11T18:55:45.134Z,99327.94
2019-01-11T18:58:22.096Z,99329.56
2019-01-11T19:01:10.350Z,99325.48
2019-01-11T19:03:47.418Z,99318.69
2019-01-11T19:06:23.393Z,99324.64
2019-01-11T19:08:55.769Z,99325.59
2019-01-11T19:11:34.166Z,99327.84
2019-01-11T19:14:06.643Z,99328.31
2019-01-11T19:16:40.700Z,99328.44
2019-01-11T19:19:21.937Z,99327.53
2019-01-11T19:21:53.126Z,99331.73
2019-01-11T19:24:32.101Z,99335.27
2019-01-11T19:27:04.590Z,99328.66
2019-01-11T19:29:52.007Z,99325.27
2019-01-11T19:32:24.478Z,99330.11
2019-01-11T19:34:56.695Z,99331.37
2019-01-11T19:37:35.591Z,99331.86
2019-01-11T19:40:10.216Z,99331.95
2019-01-11T19:42:45.695Z,99335.39
2019-01-11T19:45:21.124Z,99337.80
2019-01-11T19:47:56.376Z,99331.58
2019-01-11T19:50:33.382Z,99333.12
2019-01-11T19:53:08.983Z,99338.16
2019-01-11T19:55:44.320Z,99336.81
2019-01-11T19:58:19.753Z,99335.59
2019-01-11T20:00:58.923Z,99341.81
2019-01-11T20:03:30.849Z,99341.41
2019-01-11T20:06:03.429Z,99344.02
2019-01-11T20:08:33.297Z,99349.33
2019-01-11T20:11:05.717Z,99349.43
2019-01-11T20:13:38.456Z,99348.03
2019-01-11T20:16:17.793Z,99348.11
2019-01-11T20:18:55.448Z,99344.86
2019-01-11T20:21:28.619Z,99344.38
2019-01-11T20:24:07.378Z,99338.09
2019-01-11T20:26:41.863Z,99338.48
2019-01-11T20:29:23.435Z,99339.33
2019-01-11T20:31:57.103Z,99342.05
2019-01-11T20:34:34.961Z,99342.00
2019-01-11T20:37:10.916Z,99343.67
2019-01-11T20:39:43.672Z,99342.81
2019-01-11T20:42:13.309Z,99343.62
2019-01-11T20:44:50.850Z,99342.69
2019-01-11T20:47:27.374Z,99343.11
2019-01-11T20:50:12.543Z,99343.50
2019-01-11T20:52:54.341Z,99343.35
2019-01-11T20:55:34.324Z,99337.05
2019-01-11T20:58:22.768Z,99341.73
2019-01-11T21:01:07.537Z,99335.25
2019-01-11T21:03:49.927Z,99337.06
2019-01-11T21:06:24.656Z,99340.22
2019-01-11T21:09:09.798Z,99338.70
2019-01-11T21:14:45.064Z,99341.16
2019-01-11T21:17:24.939Z,99341.68
2019-01-11T21:19:59.962Z,99345.73
2019-01-11T21:22:38.579Z,99341.40
2019-01-11T21:25:14.352Z,99336.67
2019-01-11T21:27:54.812Z,99338.48
2019-01-11T21:30:28.089Z,99332.92
2019-01-11T21:33:01.102Z,99339.38
2019-01-11T21:35:53.610Z,99346.73
2019-01-11T21:38:37.082Z,99337.49
2019-01-11T21:41:08.389Z,99337.13
2019-01-11T21:43:51.765Z,99332.16
2019-01-11T21:46:24.631Z,99335.52
2019-01-11T21:49:02.934Z,99335.53
2019-01-11T21:51:36.867Z,99335.47
2019-01-11T21:54:11.910Z,99332.20
2019-01-11T21:56:44.062Z,99335.80
2019-01-11T21:59:20.691Z,99340.88
2019-01-11T22:01:54.528Z,99343.72
2019-01-11T22:04:24.365Z,99340.97
2019-01-11T22:06:56.938Z,99339.70
2019-01-11T22:09:30.727Z,99336.06
2019-01-11T22:12:04.521Z,99346.30
2019-01-11T22:14:38.417Z,99346.41
2019-01-11T22:17:10.953Z,99345.59
2019-01-11T22:19:53.061Z,99349.91
2019-01-11T22:22:30.651Z,99351.37
2019-01-11T22:25:10.638Z,99355.70
2019-01-11T22:27:46.714Z,99351.20
2019-01-11T22:33:24.774Z,99350.56
2019-01-11T22:35:56.420Z,99359.08
2019-01-11T22:38:32.388Z,99357.08
2019-01-11T22:41:07.207Z,99362.64
2019-01-11T22:43:43.319Z,99364.08
2019-01-11T22:46:19.939Z,99360.25
2019-01-11T22:48:56.894Z,99356.35
2019-01-11T22:51:38.679Z,99361.72
2019-01-11T22:54:14.159Z,99357.84
2019-01-11T22:56:47.339Z,99355.14
2019-01-11T22:59:26.461Z,99352.94
2019-01-11T23:02:05.198Z,99350.17
2019-01-11T23:04:37.229Z,99352.97
2019-01-11T23:07:19.870Z,99354.54
2019-01-11T23:09:50.848Z,99356.66
2019-01-11T23:12:27.383Z,99357.33
2019-01-11T23:15:08.385Z,99356.41
2019-01-11T23:17:48.415Z,99355.05
2019-01-11T23:20:28.202Z,99358.67
2019-01-11T23:23:02.398Z,99357.05
2019-01-11T23:25:37.228Z,99355.22
2019-01-11T23:28:07.860Z,99358.53
2019-01-11T23:30:41.571Z,99358.11
2019-01-11T23:36:09.253Z,99359.63
2019-01-11T23:38:54.283Z,99366.63
2019-01-11T23:41:25.483Z,99362.78
2019-01-11T23:43:58.766Z,99364.66
2019-01-11T23:46:38.750Z,99362.05
2019-01-11T23:49:13.645Z,99367.69
2019-01-11T23:51:49.078Z,99362.76
2019-01-11T23:54:24.517Z,99362.03
2019-01-11T23:56:50.958Z,99363.27
2019-01-11T23:59:22.262Z,99363.52
